sensor_id;sensor_type;location;lat;lon;timestamp;P1;durP1;ratioP1;P2;durP2;ratioP2
52650;SDS011;38537;47.226;39.702;2023-07-20T00:02:42;10.23;;;3.40;;
52650;SDS011;38537;47.226;39.702;2023-07-20T00:05:11;11.27;;;2.90;;
52650;SDS011;38537;47.226;39.702;2023-07-20T00:07:38;9.45;;;2.47;;
52650;SDS011;38537;47.226;39.702;2023-07-20T00:10:06;5.30;;;2.40;;
52650;SDS011;38537;47.226;39.702;2023-07-20T00:12:33;5.22;;;2.53;;
52650;SDS011;38537;47.226;39.702;2023-07-20T00:15:01;6.00;;;2.72;;
52650;SDS011;38537;47.226;39.702;2023-07-20T00:17:31;6.45;;;2.50;;
52650;SDS011;38537;47.226;39.702;2023-07-20T00:19:58;7.75;;;2.88;;
52650;SDS011;38537;47.226;39.702;2023-07-20T00:22:25;7.70;;;2.47;;
52650;SDS011;38537;47.226;39.702;2023-07-20T00:24:53;6.50;;;1.98;;
52650;SDS011;38537;47.226;39.702;2023-07-20T00:27:20;6.28;;;2.30;;
52650;SDS011;38537;47.226;39.702;2023-07-20T00:29:47;8.50;;;2.55;;
52650;SDS011;38537;47.226;39.702;2023-07-20T00:32:15;4.70;;;2.20;;
52650;SDS011;38537;47.226;39.702;2023-07-20T00:34:42;19.45;;;2.55;;
52650;SDS011;38537;47.226;39.702;2023-07-20T00:37:10;5.82;;;2.38;;
52650;SDS011;38537;47.226;39.702;2023-07-20T00:39:37;4.85;;;2.25;;
52650;SDS011;38537;47.226;39.702;2023-07-20T00:42:05;4.07;;;2.50;;
52650;SDS011;38537;47.226;39.702;2023-07-20T00:44:33;4.28;;;2.28;;
52650;SDS011;38537;47.226;39.702;2023-07-20T00:47:01;3.40;;;2.10;;
52650;SDS011;38537;47.226;39.702;2023-07-20T00:49:29;5.85;;;2.25;;
52650;SDS011;38537;47.226;39.702;2023-07-20T00:51:57;5.95;;;2.25;;
52650;SDS011;38537;47.226;39.702;2023-07-20T00:54:24;4.50;;;2.47;;
52650;SDS011;38537;47.226;39.702;2023-07-20T00:56:52;5.20;;;2.60;;
52650;SDS011;38537;47.226;39.702;2023-07-20T00:59:21;7.50;;;2.28;;
52650;SDS011;38537;47.226;39.702;2023-07-20T01:01:48;6.57;;;2.53;;
52650;SDS011;38537;47.226;39.702;2023-07-20T01:04:16;5.55;;;2.53;;
52650;SDS011;38537;47.226;39.702;2023-07-20T01:06:53;6.70;;;2.75;;
52650;SDS011;38537;47.226;39.702;2023-07-20T01:09:46;5.00;;;2.40;;
52650;SDS011;38537;47.226;39.702;2023-07-20T01:12:22;5.68;;;2.40;;
52650;SDS011;38537;47.226;39.702;2023-07-20T01:15:08;4.00;;;2.10;;
52650;SDS011;38537;47.226;39.702;2023-07-20T01:17:36;4.95;;;2.40;;
52650;SDS011;38537;47.226;39.702;2023-07-20T01:20:06;3.85;;;2.20;;
52650;SDS011;38537;47.226;39.702;2023-07-20T01:28:37;4.28;;;2.30;;
52650;SDS011;38537;47.226;39.702;2023-07-20T01:31:33;5.75;;;2.40;;
52650;SDS011;38537;47.226;39.702;2023-07-20T01:34:02;6.50;;;2.50;;
52650;SDS011;38537;47.226;39.702;2023-07-20T01:36:33;4.05;;;2.60;;
52650;SDS011;38537;47.226;39.702;2023-07-20T01:39:03;4.00;;;2.50;;
52650;SDS011;38537;47.226;39.702;2023-07-20T01:41:33;4.78;;;2.80;;
52650;SDS011;38537;47.226;39.702;2023-07-20T01:44:00;5.10;;;2.53;;
52650;SDS011;38537;47.226;39.702;2023-07-20T01:46:30;6.75;;;2.70;;
52650;SDS011;38537;47.226;39.702;2023-07-20T01:48:58;6.93;;;2.80;;
52650;SDS011;38537;47.226;39.702;2023-07-20T01:51:26;7.07;;;2.63;;
52650;SDS011;38537;47.226;39.702;2023-07-20T01:53:53;8.70;;;2.72;;
52650;SDS011;38537;47.226;39.702;2023-07-20T01:56:21;7.00;;;3.05;;
52650;SDS011;38537;47.226;39.702;2023-07-20T01:58:49;4.35;;;2.67;;
52650;SDS011;38537;47.226;39.702;2023-07-20T02:01:16;6.18;;;3.33;;
52650;SDS011;38537;47.226;39.702;2023-07-20T02:03:44;5.72;;;3.00;;
52650;SDS011;38537;47.226;39.702;2023-07-20T02:06:11;7.43;;;2.83;;
52650;SDS011;38537;47.226;39.702;2023-07-20T02:08:39;8.38;;;2.75;;
52650;SDS011;38537;47.226;39.702;2023-07-20T02:11:06;5.57;;;3.17;;
52650;SDS011;38537;47.226;39.702;2023-07-20T02:13:33;11.23;;;2.88;;
52650;SDS011;38537;47.226;39.702;2023-07-20T02:16:01;7.65;;;3.38;;
52650;SDS011;38537;47.226;39.702;2023-07-20T02:18:29;8.27;;;3.05;;
52650;SDS011;38537;47.226;39.702;2023-07-20T02:20:56;6.93;;;3.10;;
52650;SDS011;38537;47.226;39.702;2023-07-20T02:23:23;4.72;;;2.50;;
52650;SDS011;38537;47.226;39.702;2023-07-20T02:25:51;8.52;;;3.03;;
52650;SDS011;38537;47.226;39.702;2023-07-20T02:28:18;6.95;;;2.63;;
52650;SDS011;38537;47.226;39.702;2023-07-20T02:30:46;9.15;;;3.63;;
52650;SDS011;38537;47.226;39.702;2023-07-20T02:33:13;13.40;;;3.70;;
52650;SDS011;38537;47.226;39.702;2023-07-20T02:35:40;5.65;;;2.80;;
52650;SDS011;38537;47.226;39.702;2023-07-20T02:38:08;5.88;;;2.40;;
52650;SDS011;38537;47.226;39.702;2023-07-20T02:40:36;7.28;;;2.70;;
52650;SDS011;38537;47.226;39.702;2023-07-20T02:43:03;6.88;;;2.80;;
52650;SDS011;38537;47.226;39.702;2023-07-20T02:45:31;5.43;;;2.10;;
52650;SDS011;38537;47.226;39.702;2023-07-20T02:47:58;9.63;;;2.60;;
52650;SDS011;38537;47.226;39.702;2023-07-20T02:50:26;5.13;;;1.98;;
52650;SDS011;38537;47.226;39.702;2023-07-20T02:52:53;4.20;;;2.50;;
52650;SDS011;38537;47.226;39.702;2023-07-20T02:55:21;7.47;;;2.40;;
52650;SDS011;38537;47.226;39.702;2023-07-20T02:57:48;5.70;;;2.60;;
52650;SDS011;38537;47.226;39.702;2023-07-20T03:00:16;6.90;;;2.38;;
52650;SDS011;38537;47.226;39.702;2023-07-20T03:02:45;5.68;;;2.50;;
52650;SDS011;38537;47.226;39.702;2023-07-20T03:05:36;4.60;;;2.45;;
52650;SDS011;38537;47.226;39.702;2023-07-20T03:08:06;4.30;;;2.42;;
52650;SDS011;38537;47.226;39.702;2023-07-20T03:10:38;6.95;;;2.42;;
52650;SDS011;38537;47.226;39.702;2023-07-20T03:13:06;4.40;;;2.13;;
52650;SDS011;38537;47.226;39.702;2023-07-20T03:15:34;4.60;;;1.85;;
52650;SDS011;38537;47.226;39.702;2023-07-20T03:18:02;4.03;;;2.08;;
52650;SDS011;38537;47.226;39.702;2023-07-20T03:20:30;4.50;;;1.92;;
52650;SDS011;38537;47.226;39.702;2023-07-20T03:22:58;4.00;;;2.22;;
52650;SDS011;38537;47.226;39.702;2023-07-20T03:25:26;7.45;;;2.63;;
52650;SDS011;38537;47.226;39.702;2023-07-20T03:27:54;9.25;;;3.00;;
52650;SDS011;38537;47.226;39.702;2023-07-20T03:30:22;8.73;;;2.60;;
52650;SDS011;38537;47.226;39.702;2023-07-20T03:32:50;6.00;;;2.35;;
52650;SDS011;38537;47.226;39.702;2023-07-20T03:35:19;5.88;;;2.30;;
52650;SDS011;38537;47.226;39.702;2023-07-20T03:37:47;6.35;;;2.38;;
52650;SDS011;38537;47.226;39.702;2023-07-20T03:40:15;7.30;;;2.47;;
52650;SDS011;38537;47.226;39.702;2023-07-20T03:42:43;4.75;;;2.70;;
52650;SDS011;38537;47.226;39.702;2023-07-20T03:45:12;3.22;;;2.42;;
52650;SDS011;38537;47.226;39.702;2023-07-20T03:47:40;5.75;;;2.55;;
52650;SDS011;38537;47.226;39.702;2023-07-20T03:50:07;5.75;;;2.60;;
52650;SDS011;38537;47.226;39.702;2023-07-20T03:52:36;8.40;;;2.60;;
52650;SDS011;38537;47.226;39.702;2023-07-20T03:55:04;10.50;;;3.30;;
52650;SDS011;38537;47.226;39.702;2023-07-20T03:57:33;9.70;;;3.05;;
52650;SDS011;38537;47.226;39.702;2023-07-20T04:00:00;8.38;;;3.10;;
52650;SDS011;38537;47.226;39.702;2023-07-20T04:02:38;10.98;;;3.40;;
52650;SDS011;38537;47.226;39.702;2023-07-20T04:05:06;10.27;;;3.40;;
52650;SDS011;38537;47.226;39.702;2023-07-20T04:07:36;8.38;;;3.35;;
52650;SDS011;38537;47.226;39.702;2023-07-20T04:10:04;12.05;;;3.85;;
52650;SDS011;38537;47.226;39.702;2023-07-20T04:12:31;12.38;;;4.00;;
52650;SDS011;38537;47.226;39.702;2023-07-20T04:15:00;11.45;;;4.30;;
52650;SDS011;38537;47.226;39.702;2023-07-20T04:17:30;9.45;;;3.80;;
52650;SDS011;38537;47.226;39.702;2023-07-20T04:19:58;8.02;;;3.70;;
52650;SDS011;38537;47.226;39.702;2023-07-20T04:22:30;7.78;;;2.90;;
52650;SDS011;38537;47.226;39.702;2023-07-20T04:24:58;7.03;;;3.60;;
52650;SDS011;38537;47.226;39.702;2023-07-20T04:27:29;13.27;;;4.25;;
52650;SDS011;38537;47.226;39.702;2023-07-20T04:29:58;12.23;;;3.40;;
52650;SDS011;38537;47.226;39.702;2023-07-20T04:32:43;9.18;;;2.88;;
52650;SDS011;38537;47.226;39.702;2023-07-20T04:35:18;5.05;;;2.30;;
52650;SDS011;38537;47.226;39.702;2023-07-20T04:38:07;5.88;;;2.60;;
52650;SDS011;38537;47.226;39.702;2023-07-20T04:40:36;6.13;;;2.80;;
52650;SDS011;38537;47.226;39.702;2023-07-20T04:43:04;5.53;;;2.50;;
52650;SDS011;38537;47.226;39.702;2023-07-20T04:45:32;8.15;;;2.80;;
52650;SDS011;38537;47.226;39.702;2023-07-20T04:47:59;5.55;;;2.35;;
52650;SDS011;38537;47.226;39.702;2023-07-20T04:50:29;4.85;;;2.60;;
52650;SDS011;38537;47.226;39.702;2023-07-20T04:52:56;5.50;;;2.30;;
52650;SDS011;38537;47.226;39.702;2023-07-20T04:55:24;4.13;;;2.50;;
52650;SDS011;38537;47.226;39.702;2023-07-20T04:58:02;4.20;;;2.30;;
52650;SDS011;38537;47.226;39.702;2023-07-20T05:00:32;8.20;;;2.25;;
52650;SDS011;38537;47.226;39.702;2023-07-20T05:03:00;7.85;;;1.90;;
52650;SDS011;38537;47.226;39.702;2023-07-20T05:05:28;6.57;;;1.70;;
52650;SDS011;38537;47.226;39.702;2023-07-20T05:07:56;6.15;;;2.20;;
52650;SDS011;38537;47.226;39.702;2023-07-20T05:10:25;3.60;;;1.70;;
52650;SDS011;38537;47.226;39.702;2023-07-20T05:12:53;3.00;;;1.95;;
52650;SDS011;38537;47.226;39.702;2023-07-20T05:15:21;4.38;;;1.77;;
52650;SDS011;38537;47.226;39.702;2023-07-20T05:17:48;3.75;;;1.70;;
52650;SDS011;38537;47.226;39.702;2023-07-20T05:20:16;3.10;;;1.85;;
52650;SDS011;38537;47.226;39.702;2023-07-20T05:22:43;4.43;;;1.90;;
52650;SDS011;38537;47.226;39.702;2023-07-20T05:25:12;4.38;;;1.90;;
52650;SDS011;38537;47.226;39.702;2023-07-20T05:27:39;3.38;;;1.70;;
52650;SDS011;38537;47.226;39.702;2023-07-20T05:30:08;2.03;;;1.65;;
52650;SDS011;38537;47.226;39.702;2023-07-20T05:32:36;4.35;;;1.80;;
52650;SDS011;38537;47.226;39.702;2023-07-20T05:35:04;4.90;;;1.75;;
52650;SDS011;38537;47.226;39.702;2023-07-20T05:37:32;2.58;;;1.67;;
52650;SDS011;38537;47.226;39.702;2023-07-20T05:39:59;2.50;;;1.60;;
52650;SDS011;38537;47.226;39.702;2023-07-20T05:42:29;4.63;;;1.60;;
52650;SDS011;38537;47.226;39.702;2023-07-20T05:44:57;4.07;;;1.73;;
52650;SDS011;38537;47.226;39.702;2023-07-20T05:47:24;9.85;;;1.92;;
52650;SDS011;38537;47.226;39.702;2023-07-20T05:49:52;6.43;;;1.90;;
52650;SDS011;38537;47.226;39.702;2023-07-20T05:52:20;3.70;;;2.00;;
52650;SDS011;38537;47.226;39.702;2023-07-20T05:54:47;6.05;;;1.60;;
52650;SDS011;38537;47.226;39.702;2023-07-20T05:57:14;13.32;;;2.20;;
52650;SDS011;38537;47.226;39.702;2023-07-20T05:59:42;5.10;;;1.85;;
52650;SDS011;38537;47.226;39.702;2023-07-20T06:02:11;11.50;;;2.00;;
52650;SDS011;38537;47.226;39.702;2023-07-20T06:04:39;13.23;;;2.50;;
52650;SDS011;38537;47.226;39.702;2023-07-20T06:07:07;16.38;;;3.13;;
52650;SDS011;38537;47.226;39.702;2023-07-20T06:09:34;6.78;;;2.10;;
52650;SDS011;38537;47.226;39.702;2023-07-20T06:12:03;16.20;;;2.80;;
52650;SDS011;38537;47.226;39.702;2023-07-20T06:14:31;8.65;;;2.40;;
52650;SDS011;38537;47.226;39.702;2023-07-20T06:16:58;10.05;;;1.95;;
52650;SDS011;38537;47.226;39.702;2023-07-20T06:19:25;5.63;;;1.85;;
52650;SDS011;38537;47.226;39.702;2023-07-20T06:21:53;4.03;;;1.75;;
52650;SDS011;38537;47.226;39.702;2023-07-20T06:24:20;3.35;;;1.10;;
52650;SDS011;38537;47.226;39.702;2023-07-20T06:26:48;3.58;;;1.10;;
52650;SDS011;38537;47.226;39.702;2023-07-20T06:29:15;3.72;;;1.20;;
52650;SDS011;38537;47.226;39.702;2023-07-20T06:31:43;2.78;;;1.40;;
52650;SDS011;38537;47.226;39.702;2023-07-20T06:34:10;1.73;;;1.10;;
52650;SDS011;38537;47.226;39.702;2023-07-20T06:36:38;6.60;;;1.48;;
52650;SDS011;38537;47.226;39.702;2023-07-20T06:39:05;6.80;;;1.33;;
52650;SDS011;38537;47.226;39.702;2023-07-20T06:41:35;3.25;;;1.33;;
52650;SDS011;38537;47.226;39.702;2023-07-20T06:44:05;2.83;;;1.17;;
52650;SDS011;38537;47.226;39.702;2023-07-20T06:46:32;2.42;;;1.25;;
52650;SDS011;38537;47.226;39.702;2023-07-20T06:49:00;3.38;;;1.15;;
52650;SDS011;38537;47.226;39.702;2023-07-20T06:51:30;4.18;;;1.15;;
52650;SDS011;38537;47.226;39.702;2023-07-20T06:53:58;1.73;;;1.10;;
52650;SDS011;38537;47.226;39.702;2023-07-20T06:56:25;2.00;;;1.17;;
52650;SDS011;38537;47.226;39.702;2023-07-20T06:58:55;5.10;;;1.80;;
52650;SDS011;38537;47.226;39.702;2023-07-20T07:01:23;2.10;;;1.27;;
52650;SDS011;38537;47.226;39.702;2023-07-20T07:03:51;3.60;;;1.63;;
52650;SDS011;38537;47.226;39.702;2023-07-20T07:06:21;3.40;;;1.52;;
52650;SDS011;38537;47.226;39.702;2023-07-20T07:08:51;4.53;;;1.90;;
52650;SDS011;38537;47.226;39.702;2023-07-20T07:11:20;3.50;;;1.63;;
52650;SDS011;38537;47.226;39.702;2023-07-20T07:13:49;3.58;;;1.25;;
52650;SDS011;38537;47.226;39.702;2023-07-20T07:16:18;4.05;;;1.80;;
52650;SDS011;38537;47.226;39.702;2023-07-20T07:18:50;3.97;;;1.73;;
52650;SDS011;38537;47.226;39.702;2023-07-20T07:21:17;3.05;;;1.55;;
52650;SDS011;38537;47.226;39.702;2023-07-20T07:23:45;3.80;;;1.67;;
52650;SDS011;38537;47.226;39.702;2023-07-20T07:26:12;4.38;;;1.48;;
52650;SDS011;38537;47.226;39.702;2023-07-20T07:28:40;3.20;;;1.50;;
52650;SDS011;38537;47.226;39.702;2023-07-20T07:31:08;2.72;;;1.30;;
52650;SDS011;38537;47.226;39.702;2023-07-20T07:33:36;3.40;;;1.85;;
52650;SDS011;38537;47.226;39.702;2023-07-20T07:36:05;3.03;;;1.55;;
52650;SDS011;38537;47.226;39.702;2023-07-20T07:38:32;3.45;;;1.40;;
52650;SDS011;38537;47.226;39.702;2023-07-20T07:41:20;2.83;;;1.42;;
52650;SDS011;38537;47.226;39.702;2023-07-20T07:43:48;3.17;;;1.17;;
52650;SDS011;38537;47.226;39.702;2023-07-20T07:46:17;4.15;;;1.55;;
52650;SDS011;38537;47.226;39.702;2023-07-20T07:48:44;1.80;;;1.70;;
52650;SDS011;38537;47.226;39.702;2023-07-20T07:51:12;3.72;;;1.60;;
52650;SDS011;38537;47.226;39.702;2023-07-20T07:53:42;2.35;;;1.42;;
52650;SDS011;38537;47.226;39.702;2023-07-20T07:56:10;3.92;;;1.83;;
52650;SDS011;38537;47.226;39.702;2023-07-20T07:58:39;3.65;;;1.70;;
52650;SDS011;38537;47.226;39.702;2023-07-20T08:01:07;2.58;;;1.60;;
52650;SDS011;38537;47.226;39.702;2023-07-20T08:03:34;4.55;;;1.60;;
52650;SDS011;38537;47.226;39.702;2023-07-20T08:06:02;4.50;;;1.33;;
52650;SDS011;38537;47.226;39.702;2023-07-20T08:08:31;2.17;;;1.60;;
52650;SDS011;38537;47.226;39.702;2023-07-20T08:10:59;2.30;;;1.33;;
52650;SDS011;38537;47.226;39.702;2023-07-20T08:13:33;5.72;;;1.60;;
52650;SDS011;38537;47.226;39.702;2023-07-20T08:16:01;2.30;;;1.80;;
52650;SDS011;38537;47.226;39.702;2023-07-20T08:18:32;2.08;;;1.50;;
52650;SDS011;38537;47.226;39.702;2023-07-20T08:20:59;3.78;;;1.35;;
52650;SDS011;38537;47.226;39.702;2023-07-20T08:23:27;2.65;;;1.40;;
52650;SDS011;38537;47.226;39.702;2023-07-20T08:25:54;2.22;;;1.50;;
52650;SDS011;38537;47.226;39.702;2023-07-20T08:28:22;4.07;;;1.88;;
52650;SDS011;38537;47.226;39.702;2023-07-20T08:30:50;3.58;;;1.40;;
52650;SDS011;38537;47.226;39.702;2023-07-20T08:33:17;5.38;;;1.60;;
52650;SDS011;38537;47.226;39.702;2023-07-20T08:35:50;3.15;;;1.40;;
52650;SDS011;38537;47.226;39.702;2023-07-20T08:38:17;3.10;;;1.67;;
52650;SDS011;38537;47.226;39.702;2023-07-20T08:40:45;3.47;;;1.80;;
52650;SDS011;38537;47.226;39.702;2023-07-20T08:43:14;2.90;;;1.65;;
52650;SDS011;38537;47.226;39.702;2023-07-20T08:45:45;3.28;;;1.63;;
52650;SDS011;38537;47.226;39.702;2023-07-20T08:48:15;2.90;;;1.70;;
52650;SDS011;38537;47.226;39.702;2023-07-20T08:50:44;6.30;;;1.50;;
52650;SDS011;38537;47.226;39.702;2023-07-20T08:53:13;1.92;;;1.30;;
52650;SDS011;38537;47.226;39.702;2023-07-20T08:55:42;3.65;;;1.40;;
52650;SDS011;38537;47.226;39.702;2023-07-20T08:58:12;5.72;;;1.48;;
52650;SDS011;38537;47.226;39.702;2023-07-20T09:00:39;3.00;;;1.27;;
52650;SDS011;38537;47.226;39.702;2023-07-20T09:03:11;4.68;;;1.80;;
52650;SDS011;38537;47.226;39.702;2023-07-20T09:05:41;2.30;;;1.40;;
52650;SDS011;38537;47.226;39.702;2023-07-20T09:08:08;2.28;;;1.23;;
52650;SDS011;38537;47.226;39.702;2023-07-20T09:10:35;7.30;;;1.50;;
52650;SDS011;38537;47.226;39.702;2023-07-20T09:13:03;2.58;;;1.20;;
52650;SDS011;38537;47.226;39.702;2023-07-20T09:15:30;2.50;;;1.40;;
52650;SDS011;38537;47.226;39.702;2023-07-20T09:18:00;3.63;;;1.48;;
52650;SDS011;38537;47.226;39.702;2023-07-20T09:20:31;3.17;;;1.30;;
52650;SDS011;38537;47.226;39.702;2023-07-20T09:23:04;4.10;;;1.40;;
52650;SDS011;38537;47.226;39.702;2023-07-20T09:25:33;2.25;;;1.30;;
52650;SDS011;38537;47.226;39.702;2023-07-20T09:28:03;2.97;;;1.10;;
52650;SDS011;38537;47.226;39.702;2023-07-20T09:30:31;2.90;;;1.42;;
52650;SDS011;38537;47.226;39.702;2023-07-20T09:32:59;4.82;;;1.10;;
52650;SDS011;38537;47.226;39.702;2023-07-20T09:35:27;2.45;;;1.23;;
52650;SDS011;38537;47.226;39.702;2023-07-20T09:38:08;2.00;;;1.50;;
52650;SDS011;38537;47.226;39.702;2023-07-20T09:40:39;2.75;;;1.30;;
52650;SDS011;38537;47.226;39.702;2023-07-20T09:43:10;4.00;;;1.48;;
52650;SDS011;38537;47.226;39.702;2023-07-20T09:45:41;1.85;;;1.02;;
52650;SDS011;38537;47.226;39.702;2023-07-20T09:48:12;2.78;;;1.77;;
52650;SDS011;38537;47.226;39.702;2023-07-20T09:50:49;3.53;;;1.35;;
52650;SDS011;38537;47.226;39.702;2023-07-20T09:53:18;3.27;;;1.30;;
52650;SDS011;38537;47.226;39.702;2023-07-20T09:55:47;2.63;;;1.10;;
52650;SDS011;38537;47.226;39.702;2023-07-20T09:58:15;2.35;;;1.15;;
52650;SDS011;38537;47.226;39.702;2023-07-20T10:00:44;2.97;;;1.48;;
52650;SDS011;38537;47.226;39.702;2023-07-20T10:03:22;2.90;;;1.35;;
52650;SDS011;38537;47.226;39.702;2023-07-20T10:06:00;4.50;;;1.60;;
52650;SDS011;38537;47.226;39.702;2023-07-20T10:08:33;2.22;;;1.60;;
52650;SDS011;38537;47.226;39.702;2023-07-20T10:11:09;2.30;;;1.58;;
52650;SDS011;38537;47.226;39.702;2023-07-20T10:13:40;2.97;;;1.50;;
52650;SDS011;38537;47.226;39.702;2023-07-20T10:16:14;1.85;;;1.40;;
52650;SDS011;38537;47.226;39.702;2023-07-20T10:18:46;3.28;;;1.90;;
52650;SDS011;38537;47.226;39.702;2023-07-20T10:21:21;3.00;;;1.83;;
52650;SDS011;38537;47.226;39.702;2023-07-20T10:23:55;3.15;;;1.58;;
52650;SDS011;38537;47.226;39.702;2023-07-20T10:26:24;2.05;;;1.48;;
52650;SDS011;38537;47.226;39.702;2023-07-20T10:28:53;1.98;;;1.40;;
52650;SDS011;38537;47.226;39.702;2023-07-20T10:31:22;4.88;;;1.30;;
52650;SDS011;38537;47.226;39.702;2023-07-20T10:33:50;2.03;;;1.15;;
52650;SDS011;38537;47.226;39.702;2023-07-20T10:36:25;3.38;;;1.30;;
52650;SDS011;38537;47.226;39.702;2023-07-20T10:38:57;3.67;;;1.30;;
52650;SDS011;38537;47.226;39.702;2023-07-20T10:41:29;2.22;;;1.50;;
52650;SDS011;38537;47.226;39.702;2023-07-20T10:44:01;1.90;;;1.50;;
52650;SDS011;38537;47.226;39.702;2023-07-20T10:46:36;2.78;;;1.75;;
52650;SDS011;38537;47.226;39.702;2023-07-20T10:49:13;1.35;;;1.13;;
52650;SDS011;38537;47.226;39.702;2023-07-20T10:51:46;2.60;;;1.30;;
52650;SDS011;38537;47.226;39.702;2023-07-20T10:56:48;3.05;;;1.83;;
52650;SDS011;38537;47.226;39.702;2023-07-20T10:59:36;1.55;;;1.30;;
52650;SDS011;38537;47.226;39.702;2023-07-20T11:02:07;6.13;;;1.80;;
52650;SDS011;38537;47.226;39.702;2023-07-20T11:04:39;4.25;;;1.95;;
52650;SDS011;38537;47.226;39.702;2023-07-20T11:07:08;1.58;;;1.48;;
52650;SDS011;38537;47.226;39.702;2023-07-20T11:09:36;3.03;;;1.33;;
52650;SDS011;38537;47.226;39.702;2023-07-20T11:12:09;2.72;;;1.45;;
52650;SDS011;38537;47.226;39.702;2023-07-20T11:14:54;2.05;;;1.38;;
52650;SDS011;38537;47.226;39.702;2023-07-20T11:17:30;2.42;;;1.30;;
52650;SDS011;38537;47.226;39.702;2023-07-20T11:19:59;4.53;;;1.60;;
52650;SDS011;38537;47.226;39.702;2023-07-20T11:22:31;4.53;;;1.70;;
52650;SDS011;38537;47.226;39.702;2023-07-20T11:24:59;4.78;;;1.80;;
52650;SDS011;38537;47.226;39.702;2023-07-20T11:27:29;4.40;;;1.60;;
52650;SDS011;38537;47.226;39.702;2023-07-20T11:29:56;3.40;;;1.48;;
52650;SDS011;38537;47.226;39.702;2023-07-20T11:32:24;1.95;;;1.48;;
52650;SDS011;38537;47.226;39.702;2023-07-20T11:34:52;2.70;;;1.40;;
52650;SDS011;38537;47.226;39.702;2023-07-20T11:37:19;3.22;;;1.50;;
52650;SDS011;38537;47.226;39.702;2023-07-20T11:39:47;2.45;;;1.30;;
52650;SDS011;38537;47.226;39.702;2023-07-20T11:42:15;2.75;;;1.33;;
52650;SDS011;38537;47.226;39.702;2023-07-20T11:44:51;2.70;;;1.42;;
52650;SDS011;38537;47.226;39.702;2023-07-20T11:47:19;2.97;;;1.27;;
52650;SDS011;38537;47.226;39.702;2023-07-20T11:49:47;4.80;;;1.50;;
52650;SDS011;38537;47.226;39.702;2023-07-20T11:52:20;2.70;;;1.20;;
52650;SDS011;38537;47.226;39.702;2023-07-20T11:54:50;1.70;;;1.30;;
52650;SDS011;38537;47.226;39.702;2023-07-20T11:57:18;3.40;;;1.60;;
52650;SDS011;38537;47.226;39.702;2023-07-20T11:59:55;2.60;;;1.30;;
52650;SDS011;38537;47.226;39.702;2023-07-20T12:02:35;1.77;;;1.50;;
52650;SDS011;38537;47.226;39.702;2023-07-20T12:05:05;2.33;;;1.20;;
52650;SDS011;38537;47.226;39.702;2023-07-20T12:07:35;3.15;;;1.70;;
52650;SDS011;38537;47.226;39.702;2023-07-20T12:10:08;4.00;;;2.00;;
52650;SDS011;38537;47.226;39.702;2023-07-20T12:12:38;3.58;;;1.60;;
52650;SDS011;38537;47.226;39.702;2023-07-20T12:15:14;2.47;;;1.80;;
52650;SDS011;38537;47.226;39.702;2023-07-20T12:17:46;3.38;;;1.70;;
52650;SDS011;38537;47.226;39.702;2023-07-20T12:20:35;4.25;;;1.65;;
52650;SDS011;38537;47.226;39.702;2023-07-20T12:23:13;2.95;;;1.63;;
52650;SDS011;38537;47.226;39.702;2023-07-20T12:25:42;2.00;;;1.63;;
52650;SDS011;38537;47.226;39.702;2023-07-20T12:28:17;2.22;;;1.40;;
52650;SDS011;38537;47.226;39.702;2023-07-20T12:30:46;4.50;;;2.13;;
52650;SDS011;38537;47.226;39.702;2023-07-20T12:33:19;5.87;;;2.00;;
52650;SDS011;38537;47.226;39.702;2023-07-20T12:35:46;5.60;;;1.77;;
52650;SDS011;38537;47.226;39.702;2023-07-20T12:38:14;3.00;;;1.50;;
52650;SDS011;38537;47.226;39.702;2023-07-20T12:40:41;3.00;;;1.60;;
52650;SDS011;38537;47.226;39.702;2023-07-20T12:43:09;4.70;;;1.90;;
52650;SDS011;38537;47.226;39.702;2023-07-20T12:45:37;4.32;;;1.60;;
52650;SDS011;38537;47.226;39.702;2023-07-20T12:48:04;3.67;;;1.67;;
52650;SDS011;38537;47.226;39.702;2023-07-20T12:50:31;3.53;;;1.70;;
52650;SDS011;38537;47.226;39.702;2023-07-20T12:53:00;3.08;;;1.90;;
52650;SDS011;38537;47.226;39.702;2023-07-20T12:55:30;5.40;;;1.88;;
52650;SDS011;38537;47.226;39.702;2023-07-20T12:57:58;3.03;;;1.60;;
52650;SDS011;38537;47.226;39.702;2023-07-20T13:00:26;2.28;;;1.80;;
52650;SDS011;38537;47.226;39.702;2023-07-20T13:02:53;2.10;;;1.77;;
52650;SDS011;38537;47.226;39.702;2023-07-20T13:05:23;2.40;;;1.90;;
52650;SDS011;38537;47.226;39.702;2023-07-20T13:08:11;1.75;;;1.65;;
52650;SDS011;38537;47.226;39.702;2023-07-20T13:10:41;3.92;;;1.95;;
52650;SDS011;38537;47.226;39.702;2023-07-20T13:13:10;3.78;;;1.80;;
52650;SDS011;38537;47.226;39.702;2023-07-20T13:15:41;3.88;;;1.65;;
52650;SDS011;38537;47.226;39.702;2023-07-20T13:18:10;2.58;;;1.70;;
52650;SDS011;38537;47.226;39.702;2023-07-20T13:20:38;3.67;;;1.60;;
52650;SDS011;38537;47.226;39.702;2023-07-20T13:23:06;4.22;;;1.70;;
52650;SDS011;38537;47.226;39.702;2023-07-20T13:25:34;3.40;;;1.50;;
52650;SDS011;38537;47.226;39.702;2023-07-20T13:28:02;4.90;;;1.90;;
52650;SDS011;38537;47.226;39.702;2023-07-20T13:30:29;6.03;;;1.95;;
52650;SDS011;38537;47.226;39.702;2023-07-20T13:33:00;3.78;;;1.98;;
52650;SDS011;38537;47.226;39.702;2023-07-20T13:35:32;3.90;;;2.25;;
52650;SDS011;38537;47.226;39.702;2023-07-20T13:38:02;3.55;;;2.03;;
52650;SDS011;38537;47.226;39.702;2023-07-20T13:40:30;3.72;;;2.00;;
52650;SDS011;38537;47.226;39.702;2023-07-20T13:42:58;6.15;;;2.20;;
52650;SDS011;38537;47.226;39.702;2023-07-20T13:45:25;3.08;;;1.80;;
52650;SDS011;38537;47.226;39.702;2023-07-20T13:47:53;4.00;;;1.90;;
52650;SDS011;38537;47.226;39.702;2023-07-20T13:50:20;6.40;;;1.98;;
52650;SDS011;38537;47.226;39.702;2023-07-20T13:52:52;2.30;;;2.03;;
52650;SDS011;38537;47.226;39.702;2023-07-20T13:55:24;4.07;;;1.90;;
52650;SDS011;38537;47.226;39.702;2023-07-20T13:57:54;2.33;;;1.92;;
52650;SDS011;38537;47.226;39.702;2023-07-20T14:00:22;2.78;;;1.83;;
52650;SDS011;38537;47.226;39.702;2023-07-20T14:02:49;2.65;;;1.75;;
52650;SDS011;38537;47.226;39.702;2023-07-20T14:05:19;3.53;;;2.00;;
52650;SDS011;38537;47.226;39.702;2023-07-20T14:07:49;3.42;;;2.13;;
52650;SDS011;38537;47.226;39.702;2023-07-20T14:10:17;3.15;;;2.10;;
52650;SDS011;38537;47.226;39.702;2023-07-20T14:12:50;3.40;;;2.00;;
52650;SDS011;38537;47.226;39.702;2023-07-20T14:15:18;5.05;;;1.90;;
52650;SDS011;38537;47.226;39.702;2023-07-20T14:17:46;3.42;;;2.13;;
52650;SDS011;38537;47.226;39.702;2023-07-20T14:20:15;4.40;;;2.00;;
52650;SDS011;38537;47.226;39.702;2023-07-20T14:22:45;5.50;;;2.30;;
52650;SDS011;38537;47.226;39.702;2023-07-20T14:25:13;3.97;;;2.10;;
52650;SDS011;38537;47.226;39.702;2023-07-20T14:27:41;3.72;;;1.95;;
52650;SDS011;38537;47.226;39.702;2023-07-20T14:30:11;4.60;;;1.88;;
52650;SDS011;38537;47.226;39.702;2023-07-20T14:32:39;3.30;;;1.98;;
52650;SDS011;38537;47.226;39.702;2023-07-20T14:35:07;4.55;;;2.40;;
52650;SDS011;38537;47.226;39.702;2023-07-20T14:37:36;3.75;;;2.13;;
52650;SDS011;38537;47.226;39.702;2023-07-20T14:40:04;8.00;;;2.10;;
52650;SDS011;38537;47.226;39.702;2023-07-20T14:42:34;5.20;;;1.90;;
52650;SDS011;38537;47.226;39.702;2023-07-20T14:45:02;5.50;;;1.90;;
52650;SDS011;38537;47.226;39.702;2023-07-20T14:47:30;6.82;;;2.70;;
52650;SDS011;38537;47.226;39.702;2023-07-20T14:49:59;6.80;;;2.72;;
52650;SDS011;38537;47.226;39.702;2023-07-20T14:52:27;4.00;;;2.20;;
52650;SDS011;38537;47.226;39.702;2023-07-20T14:54:55;3.17;;;2.10;;
52650;SDS011;38537;47.226;39.702;2023-07-20T14:57:23;5.85;;;2.17;;